createdAt,value
2023-02-13T08:13:46.492Z,100671.40
2023-02-13T08:16:13.137Z,100671.00
2023-02-13T08:18:39.827Z,100670.00
2023-02-13T08:21:06.258Z,100667.60
2023-02-13T08:23:32.763Z,100671.60
2023-02-13T08:26:01.862Z,100670.20
2023-02-13T08:28:31.574Z,100666.20
2023-02-13T08:30:58.135Z,100669.40
2023-02-13T08:33:24.820Z,100662.80
2023-02-13T08:35:51.231Z,100665.00
2023-02-13T08:38:17.723Z,100669.40
2023-02-13T08:40:44.203Z,100667.20
2023-02-13T08:43:10.700Z,100668.20
2023-02-13T08:45:38.059Z,100668.20
2023-02-13T08:48:04.587Z,100670.80
2023-02-13T08:50:35.605Z,100669.00
2023-02-13T08:53:02.899Z,100667.40
2023-02-13T08:55:31.438Z,100663.40
2023-02-13T08:58:03.046Z,100659.20
2023-02-13T09:00:30.018Z,100660.00
2023-02-13T09:03:02.187Z,100656.20
2023-02-13T09:05:31.571Z,100656.60
2023-02-13T09:08:03.647Z,100660.20
2023-02-13T09:10:32.162Z,100657.40
2023-02-13T09:12:59.147Z,100667.60
2023-02-13T09:15:25.604Z,100668.00
2023-02-13T09:17:52.021Z,100658.00
2023-02-13T09:20:19.171Z,100658.20
2023-02-13T09:22:45.707Z,100664.40
2023-02-13T09:25:12.245Z,100668.80
2023-02-13T09:27:41.563Z,100661.20
2023-02-13T09:30:10.591Z,100664.80
2023-02-13T09:32:40.167Z,100664.40
2023-02-13T09:35:06.870Z,100668.80
2023-02-13T09:37:33.515Z,100665.00
2023-02-13T09:40:00.053Z,100661.60
2023-02-13T09:42:32.930Z,100668.80
2023-02-13T09:45:05.008Z,100658.40
2023-02-13T09:47:36.163Z,100659.80
2023-02-13T09:50:24.423Z,100652.40
2023-02-13T09:52:55.401Z,100650.80
2023-02-13T09:55:32.061Z,100645.40
2023-02-13T09:58:37.387Z,100647.80
2023-02-13T10:01:15.832Z,100647.00
2023-02-13T10:03:51.320Z,100657.40
2023-02-13T10:06:31.442Z,100644.60
2023-02-13T10:09:30.557Z,100643.60
2023-02-13T10:12:36.474Z,100653.20
2023-02-13T10:15:24.763Z,100643.60
2023-02-13T10:18:06.724Z,100635.80
2023-02-13T10:20:47.561Z,100635.20
2023-02-13T10:23:25.232Z,100632.80
2023-02-13T10:26:16.204Z,100630.60
2023-02-13T10:29:12.538Z,100626.80
2023-02-13T10:31:42.961Z,100632.60
2023-02-13T10:34:17.069Z,100624.80
2023-02-13T10:36:47.285Z,100631.60
2023-02-13T10:39:28.846Z,100623.80
2023-02-13T10:42:34.677Z,100619.20
2023-02-13T10:45:51.258Z,100620.40
2023-02-13T10:48:48.486Z,100619.40
2023-02-13T10:51:36.031Z,100621.60
2023-02-13T10:54:32.154Z,100624.00
2023-02-13T10:57:18.455Z,100628.80
2023-02-13T11:00:13.308Z,100632.00
2023-02-13T11:02:41.257Z,100618.60
2023-02-13T11:05:16.944Z,100620.20
2023-02-13T11:07:49.595Z,100628.40
2023-02-13T11:10:19.475Z,100628.60
2023-02-13T11:12:46.472Z,100632.20
2023-02-13T11:15:30.410Z,100627.20
2023-02-13T11:18:02.591Z,100627.20
2023-02-13T11:20:38.193Z,100632.20
2023-02-13T11:23:20.672Z,100621.40
2023-02-13T11:26:14.770Z,100630.00
2023-02-13T11:28:56.163Z,100617.20
2023-02-13T11:31:27.893Z,100624.40
2023-02-13T11:33:57.937Z,100616.00
2023-02-13T11:36:32.643Z,100613.00
2023-02-13T11:39:06.412Z,100605.40
2023-02-13T11:41:44.820Z,100608.60
2023-02-13T11:44:31.076Z,100611.00
2023-02-13T11:47:02.189Z,100613.60
2023-02-13T11:49:39.451Z,100616.60
2023-02-13T11:52:26.025Z,100614.40
2023-02-13T11:55:23.759Z,100610.80
2023-02-13T11:58:03.449Z,100599.20
2023-02-13T12:00:40.054Z,100596.80
2023-02-13T12:03:22.391Z,100593.60
2023-02-13T12:06:15.520Z,100595.40
2023-02-13T12:08:47.244Z,100594.00
2023-02-13T12:11:34.642Z,100586.00
2023-02-13T12:14:01.233Z,100585.60
2023-02-13T12:16:43.078Z,100580.60
2023-02-13T12:19:19.861Z,100580.20
2023-02-13T12:22:09.429Z,100577.40
2023-02-13T12:24:42.155Z,100577.60
2023-02-13T12:27:55.985Z,100580.60
2023-02-13T12:31:21.044Z,100583.40
2023-02-13T12:34:15.643Z,100582.20
2023-02-13T12:37:00.242Z,100582.20
2023-02-13T12:39:40.218Z,100574.60
2023-02-13T12:42:29.392Z,100586.80
2023-02-13T12:45:28.502Z,100583.00
2023-02-13T12:48:23.915Z,100566.80
2023-02-13T12:51:35.085Z,100563.60
2023-02-13T12:54:52.608Z,100559.80
2023-02-13T12:57:56.889Z,100568.80
2023-02-13T13:00:51.962Z,100556.20
2023-02-13T13:03:31.919Z,100554.20
2023-02-13T13:06:24.235Z,100550.00
2023-02-13T13:09:36.270Z,100553.20
2023-02-13T13:12:43.960Z,100559.00
2023-02-13T13:15:49.420Z,100559.60
2023-02-13T13:18:43.813Z,100552.20
2023-02-13T13:21:32.903Z,100552.20
2023-02-13T13:24:53.694Z,100545.60
2023-02-13T13:27:53.329Z,100527.00
2023-02-13T13:30:22.804Z,100525.40
2023-02-13T13:32:57.335Z,100524.20
2023-02-13T13:35:24.721Z,100519.00
2023-02-13T13:38:38.897Z,100525.60
2023-02-13T13:41:39.118Z,100522.40
2023-02-13T13:44:42.395Z,100527.80
2023-02-13T13:47:39.979Z,100532.00
2023-02-13T13:50:23.995Z,100525.60
2023-02-13T13:53:14.769Z,100520.40
2023-02-13T13:55:48.161Z,100522.80
2023-02-13T13:58:35.970Z,100524.40
2023-02-13T14:01:15.063Z,100517.20
2023-02-13T14:03:48.777Z,100514.40
2023-02-13T14:06:41.748Z,100513.40
2023-02-13T14:09:28.241Z,100509.40
2023-02-13T14:11:56.721Z,100497.00
2023-02-13T14:14:44.640Z,100496.60
2023-02-13T14:17:16.300Z,100502.40
2023-02-13T14:19:53.147Z,100501.80
2023-02-13T14:22:19.628Z,100495.20
2023-02-13T14:24:55.116Z,100495.00
2023-02-13T14:27:31.074Z,100500.80
2023-02-13T14:29:58.657Z,100514.40
2023-02-13T14:32:41.277Z,100505.00
2023-02-13T14:35:26.147Z,100504.00
2023-02-13T14:38:00.127Z,100504.60
2023-02-13T14:40:43.961Z,100500.80
2023-02-13T14:43:35.872Z,100493.60
2023-02-13T14:46:12.330Z,100496.40
2023-02-13T14:48:51.766Z,100500.40
2023-02-13T14:51:33.165Z,100500.00
2023-02-13T14:54:09.392Z,100509.00
2023-02-13T14:56:39.786Z,100512.00
2023-02-13T14:59:17.722Z,100513.80
2023-02-13T15:01:57.810Z,100518.00
2023-02-13T15:04:38.397Z,100519.00
2023-02-13T15:07:13.254Z,100511.80
2023-02-13T15:09:44.943Z,100507.40
2023-02-13T15:12:28.700Z,100502.60
2023-02-13T15:14:55.733Z,100505.40
2023-02-13T15:17:29.928Z,100491.80
2023-02-13T15:20:10.067Z,100482.00
2023-02-13T15:22:41.418Z,100461.60
2023-02-13T15:25:09.086Z,100466.80
2023-02-13T15:27:43.064Z,100474.40
2023-02-13T15:30:24.163Z,100481.40
2023-02-13T15:33:04.164Z,100486.40
2023-02-13T15:35:34.494Z,100480.40
2023-02-13T15:38:24.560Z,100483.60
2023-02-13T15:40:54.964Z,100497.00
2023-02-13T15:43:32.349Z,100492.00
2023-02-13T15:46:08.506Z,100501.80
2023-02-13T15:48:35.718Z,100494.40
2023-02-13T15:51:03.455Z,100487.00
2023-02-13T15:53:30.437Z,100483.00
2023-02-13T15:56:05.678Z,100483.40
2023-02-13T15:58:34.904Z,100481.60
2023-02-13T16:01:07.719Z,100478.40
2023-02-13T16:03:36.460Z,100467.60
2023-02-13T16:06:06.283Z,100464.20
2023-02-13T16:08:40.782Z,100471.00
2023-02-13T16:11:16.423Z,100472.00
2023-02-13T16:14:24.837Z,100472.00
2023-02-13T16:16:58.597Z,100463.80
2023-02-13T16:19:53.149Z,100465.60
2023-02-13T16:22:53.899Z,100476.20
2023-02-13T16:25:51.582Z,100476.80
2023-02-13T16:28:27.778Z,100472.80
2023-02-13T16:31:03.150Z,100465.60
2023-02-13T16:33:35.807Z,100473.40
2023-02-13T16:36:11.455Z,100467.80
2023-02-13T16:38:49.937Z,100456.80
2023-02-13T16:41:19.569Z,100472.20
2023-02-13T16:44:03.837Z,100480.20
2023-02-13T16:46:52.438Z,100494.20
2023-02-13T16:49:29.025Z,100496.40
2023-02-13T16:52:19.510Z,100495.60
2023-02-13T16:54:55.256Z,100493.80
2023-02-13T16:57:32.371Z,100496.00
2023-02-13T17:00:21.896Z,100502.40
2023-02-13T17:02:50.708Z,100506.80
2023-02-13T17:05:26.416Z,100508.60
2023-02-13T17:08:00.493Z,100505.40
2023-02-13T17:10:36.168Z,100512.40
2023-02-13T17:13:08.901Z,100493.40
2023-02-13T17:15:35.285Z,100491.20
2023-02-13T17:18:01.851Z,100495.00
2023-02-13T17:20:35.080Z,100493.60
2023-02-13T17:23:05.757Z,100484.80
2023-02-13T17:25:37.393Z,100476.40
2023-02-13T17:28:25.524Z,100484.80
2023-02-13T17:30:56.779Z,100489.20
2023-02-13T17:33:34.805Z,100490.00
2023-02-13T17:36:01.343Z,100484.00
2023-02-13T17:38:27.828Z,100490.20
2023-02-13T17:40:54.565Z,100488.80
2023-02-13T17:43:21.175Z,100491.20
2023-02-13T17:45:50.006Z,100489.00
2023-02-13T17:48:17.305Z,100490.00
2023-02-13T17:50:44.270Z,100501.20
2023-02-13T17:53:24.720Z,100494.20
2023-02-13T17:55:52.186Z,100490.00
2023-02-13T17:58:18.951Z,100501.00
2023-02-13T18:00:45.496Z,100485.60
2023-02-13T18:03:12.894Z,100507.40
2023-02-13T18:05:40.344Z,100497.20
2023-02-13T18:08:08.318Z,100496.60
2023-02-13T18:10:37.516Z,100484.40
2023-02-13T18:13:04.477Z,100490.80
2023-02-13T18:15:41.122Z,100491.00
2023-02-13T18:18:08.111Z,100494.40
2023-02-13T18:20:35.267Z,100493.60
2023-02-13T18:23:01.915Z,100491.40
2023-02-13T18:25:29.205Z,100489.40
2023-02-13T18:27:55.802Z,100491.40
2023-02-13T18:30:22.397Z,100505.80
2023-02-13T18:32:58.835Z,100493.20
2023-02-13T18:35:25.369Z,100505.40
2023-02-13T18:37:51.973Z,100496.60
2023-02-13T18:40:18.898Z,100503.80
2023-02-13T18:42:45.475Z,100500.40
2023-02-13T18:45:12.670Z,100509.80
2023-02-13T18:47:39.435Z,100518.60
2023-02-13T18:50:07.339Z,100522.40
2023-02-13T18:52:35.203Z,100529.40
2023-02-13T18:55:01.740Z,100519.80
2023-02-13T18:57:28.320Z,100518.20
2023-02-13T18:59:54.803Z,100527.80
2023-02-13T19:02:21.322Z,100545.60
2023-02-13T19:04:47.837Z,100546.80
2023-02-13T19:07:14.224Z,100553.40
2023-02-13T19:09:40.893Z,100544.40
2023-02-13T19:12:08.140Z,100544.20
2023-02-13T19:14:34.906Z,100550.20
2023-02-13T19:17:01.334Z,100552.00
2023-02-13T19:19:27.954Z,100561.60
2023-02-13T19:21:54.471Z,100557.40
2023-02-13T19:24:21.310Z,100560.60
2023-02-13T19:26:47.755Z,100562.60
2023-02-13T19:29:14.210Z,100560.60
2023-02-13T19:31:41.338Z,100557.60
2023-02-13T19:34:08.021Z,100552.60
2023-02-13T19:36:34.413Z,100557.00
2023-02-13T19:39:05.545Z,100557.20
2023-02-13T19:41:32.988Z,100554.20
2023-02-13T19:44:00.324Z,100558.20
2023-02-13T19:46:31.070Z,100559.00
2023-02-13T19:48:58.553Z,100558.60
2023-02-13T19:51:29.622Z,100563.60
2023-02-13T19:54:06.555Z,100567.20
2023-02-13T19:56:37.549Z,100569.80
2023-02-13T19:59:05.684Z,100564.00
2023-02-13T20:01:32.485Z,100558.40
2023-02-13T20:03:59.370Z,100555.40
2023-02-13T20:06:32.067Z,100556.80
2023-02-13T20:09:01.733Z,100560.80
2023-02-13T20:11:29.203Z,100561.00
2023-02-13T20:14:00.504Z,100569.00
2023-02-13T20:16:32.659Z,100571.80
2023-02-13T20:19:03.092Z,100572.00
2023-02-13T20:21:29.562Z,100577.80
2023-02-13T20:23:55.966Z,100576.00
2023-02-13T20:26:22.731Z,100575.20
2023-02-13T20:28:49.191Z,100571.40
2023-02-13T20:31:20.025Z,100576.80
2023-02-13T20:33:49.121Z,100576.60
2023-02-13T20:36:20.494Z,100581.60
2023-02-13T20:38:47.658Z,100580.40
2023-02-13T20:41:18.779Z,100578.80
2023-02-13T20:43:45.770Z,100585.40
2023-02-13T20:46:13.379Z,100583.40
2023-02-13T20:48:40.737Z,100588.20
2023-02-13T20:51:13.999Z,100588.80
2023-02-13T20:53:42.336Z,100594.20
2023-02-13T20:56:16.072Z,100592.00
2023-02-13T20:58:45.265Z,100591.20
2023-02-13T21:01:28.101Z,100591.20
2023-02-13T21:03:56.125Z,100595.20
2023-02-13T21:06:29.403Z,100596.40
2023-02-13T21:08:56.661Z,100604.40
2023-02-13T21:11:24.521Z,100597.20
2023-02-13T21:13:51.485Z,100596.00
2023-02-13T21:16:22.557Z,100592.60
2023-02-13T21:18:53.124Z,100602.20
2023-02-13T21:21:22.186Z,100598.40
2023-02-13T21:23:53.860Z,100597.40
2023-02-13T21:26:21.630Z,100593.20
2023-02-13T21:28:50.089Z,100591.40
2023-02-13T21:31:25.631Z,100587.80
2023-02-13T21:33:52.437Z,100588.20
2023-02-13T21:36:19.778Z,100592.80
2023-02-13T21:38:46.211Z,100593.00
2023-02-13T21:41:17.124Z,100596.00
2023-02-13T21:43:47.848Z,100600.40
2023-02-13T21:46:21.932Z,100590.80
2023-02-13T21:48:55.155Z,100592.00
2023-02-13T21:51:23.159Z,100589.80
2023-02-13T21:53:51.014Z,100591.60
2023-02-13T21:56:24.577Z,100584.00
2023-02-13T21:58:51.951Z,100582.60
2023-02-13T22:01:28.256Z,100582.00
2023-02-13T22:04:00.338Z,100574.00
2023-02-13T22:06:29.472Z,100571.60
2023-02-13T22:08:59.229Z,100572.80
2023-02-13T22:11:26.924Z,100570.40
2023-02-13T22:14:01.586Z,100572.40
2023-02-13T22:16:31.498Z,100567.20
2023-02-13T22:18:58.184Z,100572.60
2023-02-13T22:21:28.776Z,100573.20
2023-02-13T22:23:55.831Z,100567.80
2023-02-13T22:26:38.062Z,100570.60
2023-02-13T22:29:08.682Z,100568.60
2023-02-13T22:31:36.150Z,100559.60
2023-02-13T22:34:05.601Z,100564.00
2023-02-13T22:36:38.344Z,100565.40
2023-02-13T22:39:05.066Z,100576.00
2023-02-13T22:41:31.528Z,100565.40
2023-02-13T22:43:58.066Z,100569.20
2023-02-13T22:46:29.120Z,100566.80
2023-02-13T22:48:56.568Z,100567.40
2023-02-13T22:51:30.547Z,100560.20
2023-02-13T22:53:58.717Z,100558.40
2023-02-13T22:56:28.518Z,100559.20
2023-02-13T22:58:55.134Z,100558.60
2023-02-13T23:01:25.121Z,100556.00
2023-02-13T23:03:51.993Z,100553.80
2023-02-13T23:06:19.804Z,100548.00
2023-02-13T23:08:48.980Z,100554.80
2023-02-13T23:11:35.918Z,100552.00
2023-02-13T23:14:04.392Z,100550.00
2023-02-13T23:16:54.198Z,100552.40
2023-02-13T23:19:21.769Z,100556.80
2023-02-13T23:21:48.855Z,100560.80
2023-02-13T23:24:15.630Z,100553.80
2023-02-13T23:26:42.558Z,100556.80
2023-02-13T23:29:09.510Z,100560.00
2023-02-13T23:31:36.080Z,100562.80
2023-02-13T23:34:02.639Z,100567.60
2023-02-13T23:36:29.124Z,100563.20
2023-02-13T23:38:55.528Z,100560.40
2023-02-13T23:41:22.212Z,100557.60
2023-02-13T23:43:48.722Z,100561.00
2023-02-13T23:46:15.199Z,100558.40
2023-02-13T23:48:41.738Z,100559.60
2023-02-13T23:51:08.176Z,100552.20
2023-02-13T23:53:35.994Z,100550.80
2023-02-13T23:56:03.911Z,100549.00
2023-02-13T23:58:30.590Z,100557.40
